createdAt,value
2023-02-06T00:01:30.967Z,100.00
2023-02-06T00:03:59.367Z,100.00
2023-02-06T00:06:27.748Z,100.00
2023-02-06T00:08:56.205Z,100.00
2023-02-06T00:11:26.413Z,100.00
2023-02-06T00:13:55.050Z,100.00
2023-02-06T00:16:24.922Z,99.72
2023-02-06T00:18:54.487Z,97.99
2023-02-06T00:21:24.721Z,94.67
2023-02-06T00:23:54.111Z,97.45
2023-02-06T00:26:23.245Z,98.67
2023-02-06T00:28:53.468Z,100.00
2023-02-06T00:31:22.306Z,100.00
2023-02-06T00:33:50.720Z,100.00
2023-02-06T00:36:19.133Z,97.47
2023-02-06T00:38:47.494Z,94.86
2023-02-06T00:41:16.061Z,100.00
2023-02-06T00:43:44.599Z,98.68
2023-02-06T00:46:14.481Z,99.17
2023-02-06T00:48:43.267Z,99.59
2023-02-06T00:51:11.617Z,100.00
2023-02-06T00:53:40.083Z,98.59
2023-02-06T00:56:08.501Z,98.79
2023-02-06T00:58:36.891Z,98.45
2023-02-06T01:01:05.578Z,95.27
2023-02-06T01:03:35.479Z,95.27
2023-02-06T01:06:03.913Z,95.33
2023-02-06T01:08:32.373Z,98.14
2023-02-06T01:11:00.855Z,98.76
2023-02-06T01:13:29.530Z,100.00
2023-02-06T01:15:58.110Z,100.00
2023-02-06T01:18:26.535Z,100.00
2023-02-06T01:20:56.368Z,100.00
2023-02-06T01:23:26.098Z,98.18
2023-02-06T01:25:54.465Z,100.00
2023-02-06T01:28:22.866Z,95.07
2023-02-06T01:30:51.409Z,94.84
2023-02-06T01:33:19.841Z,93.84
2023-02-06T01:35:57.551Z,93.26
2023-02-06T01:38:25.919Z,97.76
2023-02-06T01:40:57.678Z,94.74
2023-02-06T01:43:27.234Z,90.37
2023-02-06T01:45:55.623Z,88.10
2023-02-06T01:48:29.305Z,89.26
2023-02-06T01:50:59.445Z,90.70
2023-02-06T01:53:28.289Z,92.57
2023-02-06T01:55:58.064Z,93.46
2023-02-06T01:58:30.212Z,94.63
2023-02-06T02:00:59.148Z,93.32
2023-02-06T02:03:27.861Z,90.35
2023-02-06T02:06:01.308Z,83.80
2023-02-06T02:08:34.218Z,82.96
2023-02-06T02:11:03.677Z,85.00
2023-02-06T02:13:34.336Z,90.26
2023-02-06T02:16:09.073Z,90.44
2023-02-06T02:18:47.647Z,89.53
2023-02-06T02:21:52.510Z,83.81
2023-02-06T02:24:24.617Z,88.16
2023-02-06T02:27:19.309Z,92.14
2023-02-06T02:30:28.989Z,90.78
2023-02-06T02:33:14.214Z,88.00
2023-02-06T02:35:48.862Z,86.18
2023-02-06T02:38:28.049Z,84.34
2023-02-06T02:40:59.342Z,91.84
2023-02-06T02:43:33.928Z,98.64
2023-02-06T02:46:06.242Z,87.54
2023-02-06T02:48:37.341Z,87.41
2023-02-06T02:51:07.433Z,86.32
2023-02-06T02:53:35.765Z,84.08
2023-02-06T02:56:04.258Z,88.44
2023-02-06T02:58:35.413Z,87.55
2023-02-06T03:01:07.318Z,88.49
2023-02-06T03:03:36.787Z,86.46
2023-02-06T03:06:19.221Z,87.08
2023-02-06T03:08:51.404Z,90.28
2023-02-06T03:11:21.310Z,86.23
2023-02-06T03:13:53.926Z,90.53
2023-02-06T03:16:24.599Z,91.07
2023-02-06T03:18:57.974Z,87.77
2023-02-06T03:21:29.099Z,90.55
2023-02-06T03:23:59.796Z,98.02
2023-02-06T03:26:28.506Z,100.00
2023-02-06T03:28:59.756Z,100.00
2023-02-06T03:31:30.501Z,100.00
2023-02-06T03:34:03.147Z,98.48
2023-02-06T03:36:33.099Z,98.37
2023-02-06T03:39:01.551Z,100.00
2023-02-06T03:41:37.297Z,100.00
2023-02-06T03:44:07.819Z,100.00
2023-02-06T03:46:36.002Z,100.00
2023-02-06T03:49:07.554Z,99.48
2023-02-06T03:51:40.519Z,98.97
2023-02-06T03:54:10.145Z,99.74
2023-02-06T03:56:44.737Z,100.00
2023-02-06T03:59:13.161Z,100.00
2023-02-06T04:01:43.169Z,100.00
2023-02-06T04:04:11.549Z,100.00
2023-02-06T04:06:41.244Z,100.00
2023-02-06T04:09:09.618Z,100.00
2023-02-06T04:11:37.998Z,100.00
2023-02-06T04:14:06.502Z,100.00
2023-02-06T04:16:34.890Z,100.00
2023-02-06T04:19:03.295Z,100.00
2023-02-06T04:21:31.647Z,100.00
2023-02-06T04:24:01.363Z,100.00
2023-02-06T04:26:29.761Z,100.00
2023-02-06T04:28:58.195Z,100.00
2023-02-06T04:31:26.571Z,100.00
2023-02-06T04:33:55.021Z,100.00
2023-02-06T04:36:23.531Z,100.00
2023-02-06T04:38:51.920Z,100.00
2023-02-06T04:41:21.664Z,100.00
2023-02-06T04:43:50.055Z,100.00
2023-02-06T04:46:18.535Z,100.00
2023-02-06T04:48:47.089Z,100.00
2023-02-06T04:51:15.592Z,100.00
2023-02-06T04:53:44.034Z,100.00
2023-02-06T04:56:13.530Z,100.00
2023-02-06T04:58:43.469Z,100.00
2023-02-06T05:01:11.821Z,100.00
2023-02-06T05:03:40.289Z,100.00
2023-02-06T05:06:08.851Z,100.00
2023-02-06T05:08:37.288Z,100.00
2023-02-06T05:11:05.865Z,100.00
2023-02-06T05:13:34.799Z,100.00
2023-02-06T05:16:07.819Z,100.00
2023-02-06T05:18:36.314Z,100.00
2023-02-06T05:21:05.398Z,100.00
2023-02-06T05:23:33.776Z,100.00
2023-02-06T05:26:02.381Z,100.00
2023-02-06T05:28:33.359Z,100.00
2023-02-06T05:31:02.029Z,100.00
2023-02-06T05:33:31.971Z,100.00
2023-02-06T05:36:03.441Z,100.00
2023-02-06T05:38:31.916Z,100.00
2023-02-06T05:41:00.407Z,100.00
2023-02-06T05:43:28.800Z,100.00
2023-02-06T05:45:57.148Z,100.00
2023-02-06T05:48:27.216Z,100.00
2023-02-06T05:50:57.444Z,100.00
2023-02-06T05:53:25.893Z,100.00
2023-02-06T05:55:54.652Z,100.00
2023-02-06T05:58:23.049Z,100.00
2023-02-06T06:00:51.498Z,100.00
2023-02-06T06:03:19.947Z,100.00
2023-02-06T06:05:48.577Z,100.00
2023-02-06T06:08:18.360Z,100.00
2023-02-06T06:10:46.768Z,100.00
2023-02-06T06:13:15.179Z,100.00
2023-02-06T06:15:43.700Z,100.00
2023-02-06T06:18:12.246Z,100.00
2023-02-06T06:20:40.685Z,100.00
2023-02-06T06:23:09.080Z,100.00
2023-02-06T06:25:38.925Z,100.00
2023-02-06T06:28:08.406Z,100.00
2023-02-06T06:30:37.618Z,100.00
2023-02-06T06:33:06.125Z,100.00
2023-02-06T06:35:34.877Z,100.00
2023-02-06T06:38:03.537Z,100.00
2023-02-06T06:40:31.921Z,100.00
2023-02-06T06:43:01.808Z,100.00
2023-02-06T06:45:30.266Z,100.00
2023-02-06T06:47:58.714Z,100.00
2023-02-06T06:50:27.796Z,100.00
2023-02-06T06:52:56.180Z,100.00
2023-02-06T06:55:24.818Z,100.00
2023-02-06T06:57:53.181Z,100.00
2023-02-06T07:00:23.217Z,100.00
2023-02-06T07:02:51.670Z,100.00
2023-02-06T07:05:20.269Z,100.00
2023-02-06T07:07:48.627Z,100.00
2023-02-06T07:10:17.172Z,100.00
2023-02-06T07:12:45.613Z,100.00
2023-02-06T07:15:13.985Z,100.00
2023-02-06T07:17:43.733Z,100.00
2023-02-06T07:20:12.729Z,100.00
2023-02-06T07:22:41.122Z,100.00
2023-02-06T07:25:09.721Z,100.00
2023-02-06T07:27:38.144Z,100.00
2023-02-06T07:30:07.232Z,100.00
2023-02-06T07:32:36.461Z,100.00
2023-02-06T07:35:07.543Z,100.00
2023-02-06T07:37:35.887Z,100.00
2023-02-06T07:40:04.418Z,100.00
2023-02-06T07:42:33.792Z,100.00
2023-02-06T07:45:02.162Z,100.00
2023-02-06T07:47:30.457Z,100.00
2023-02-06T07:49:58.873Z,100.00
2023-02-06T07:52:28.687Z,100.00
2023-02-06T07:54:57.162Z,100.00
2023-02-06T07:57:25.574Z,100.00
2023-02-06T07:59:54.003Z,100.00
2023-02-06T08:02:22.375Z,100.00
2023-02-06T08:04:50.725Z,100.00
2023-02-06T08:07:19.129Z,100.00
2023-02-06T08:09:48.998Z,100.00
2023-02-06T08:12:17.345Z,100.00
2023-02-06T08:14:45.947Z,100.00
2023-02-06T08:17:14.299Z,100.00
2023-02-06T08:19:42.730Z,100.00
2023-02-06T08:22:11.033Z,100.00
2023-02-06T08:24:39.396Z,100.00
2023-02-06T08:27:09.146Z,100.00
2023-02-06T08:29:42.415Z,100.00
2023-02-06T08:32:11.020Z,100.00
2023-02-06T08:34:40.071Z,100.00
2023-02-06T08:37:08.743Z,100.00
2023-02-06T08:39:38.196Z,100.00
2023-02-06T08:42:06.636Z,100.00
2023-02-06T08:44:36.580Z,96.63
2023-02-06T08:47:10.464Z,94.30
2023-02-06T08:49:39.286Z,90.88
2023-02-06T08:52:07.622Z,93.95
2023-02-06T08:54:38.599Z,92.73
2023-02-06T08:57:07.723Z,92.10
2023-02-06T08:59:37.421Z,86.20
2023-02-06T09:02:08.254Z,87.25
2023-02-06T09:04:37.836Z,86.14
2023-02-06T09:07:06.227Z,82.46
2023-02-06T09:09:34.633Z,76.66
2023-02-06T09:12:04.060Z,73.53
2023-02-06T09:14:32.956Z,72.47
2023-02-06T09:17:02.670Z,68.55
2023-02-06T09:19:30.988Z,67.99
2023-02-06T09:21:59.375Z,69.82
2023-02-06T09:24:30.228Z,70.60
2023-02-06T09:27:00.484Z,69.23
2023-02-06T09:29:31.891Z,66.76
2023-02-06T09:32:02.461Z,64.75
2023-02-06T09:34:31.001Z,63.40
2023-02-06T09:36:59.866Z,62.09
2023-02-06T09:39:28.284Z,57.39
2023-02-06T09:42:01.187Z,54.19
2023-02-06T09:44:32.275Z,53.17
2023-02-06T09:47:05.430Z,51.19
2023-02-06T09:49:37.682Z,50.57
2023-02-06T09:52:23.110Z,50.13
2023-02-06T09:54:58.922Z,50.72
2023-02-06T09:57:35.618Z,50.40
2023-02-06T10:00:10.852Z,50.00
2023-02-06T10:02:56.459Z,48.47
2023-02-06T10:05:29.050Z,47.67
2023-02-06T10:08:04.951Z,47.18
2023-02-06T10:10:40.048Z,51.06
2023-02-06T10:13:14.899Z,49.05
2023-02-06T10:15:46.353Z,49.85
2023-02-06T10:18:20.563Z,51.37
2023-02-06T10:20:52.560Z,49.60
2023-02-06T10:23:25.059Z,51.83
2023-02-06T10:26:03.466Z,52.04
2023-02-06T10:28:33.525Z,49.19
2023-02-06T10:31:13.530Z,50.75
2023-02-06T10:33:48.369Z,50.54
2023-02-06T10:36:27.334Z,52.01
2023-02-06T10:39:13.804Z,49.57
2023-02-06T10:41:48.050Z,49.22
2023-02-06T10:44:28.549Z,49.51
2023-02-06T10:46:57.883Z,48.85
2023-02-06T10:49:31.509Z,48.92
2023-02-06T10:52:02.012Z,51.19
2023-02-06T10:54:35.222Z,49.04
2023-02-06T10:57:04.659Z,48.17
2023-02-06T10:59:34.987Z,47.71
2023-02-06T11:02:20.240Z,47.67
2023-02-06T11:04:54.169Z,47.69
2023-02-06T11:07:26.942Z,47.55
2023-02-06T11:09:55.582Z,47.26
2023-02-06T11:12:29.522Z,47.10
2023-02-06T11:14:59.340Z,48.15
2023-02-06T11:17:28.449Z,46.90
2023-02-06T11:20:02.505Z,47.35
2023-02-06T11:22:41.522Z,48.67
2023-02-06T11:25:36.957Z,49.20
2023-02-06T11:28:14.149Z,50.47
2023-02-06T11:30:44.515Z,50.04
2023-02-06T11:33:20.676Z,50.11
2023-02-06T11:35:52.908Z,50.08
2023-02-06T11:38:22.988Z,49.58
2023-02-06T11:40:56.458Z,48.12
2023-02-06T11:43:26.255Z,48.70
2023-02-06T11:46:09.063Z,49.66
2023-02-06T11:48:39.656Z,48.64
2023-02-06T11:51:10.308Z,49.51
2023-02-06T11:53:38.826Z,49.02
2023-02-06T11:56:18.137Z,49.11
2023-02-06T11:58:46.883Z,47.87
2023-02-06T12:01:20.853Z,49.81
2023-02-06T12:03:57.692Z,49.51
2023-02-06T12:06:31.291Z,50.25
2023-02-06T12:09:01.835Z,50.76
2023-02-06T12:11:35.361Z,50.86
2023-02-06T12:14:06.366Z,52.59
2023-02-06T12:16:36.043Z,51.69
2023-02-06T12:19:11.599Z,53.34
2023-02-06T12:21:44.148Z,53.35
2023-02-06T12:24:22.957Z,54.06
2023-02-06T12:26:52.270Z,54.43
2023-02-06T12:29:23.813Z,54.97
2023-02-06T12:31:56.356Z,54.94
2023-02-06T12:34:28.761Z,54.79
2023-02-06T12:37:10.775Z,55.91
2023-02-06T12:39:39.128Z,56.78
2023-02-06T12:42:19.331Z,55.97
2023-02-06T12:44:50.643Z,55.46
2023-02-06T12:47:23.654Z,55.53
2023-02-06T12:49:57.870Z,55.56
2023-02-06T12:52:31.166Z,55.18
2023-02-06T12:55:07.913Z,55.70
2023-02-06T12:57:37.322Z,55.73
2023-02-06T13:00:28.510Z,56.59
2023-02-06T13:03:16.776Z,57.38
2023-02-06T13:05:47.813Z,54.38
2023-02-06T13:08:20.551Z,54.77
2023-02-06T13:10:50.409Z,53.66
2023-02-06T13:13:27.613Z,56.49
2023-02-06T13:15:56.756Z,57.68
2023-02-06T13:18:53.331Z,57.94
2023-02-06T13:21:25.165Z,57.51
2023-02-06T13:24:13.708Z,57.89
2023-02-06T13:27:05.130Z,56.13
2023-02-06T13:29:34.464Z,58.52
2023-02-06T13:32:53.497Z,56.04
2023-02-06T13:35:25.538Z,52.91
2023-02-06T13:38:13.111Z,52.14
2023-02-06T13:40:42.831Z,50.34
2023-02-06T13:43:18.664Z,50.49
2023-02-06T13:45:52.195Z,51.50
2023-02-06T13:48:39.056Z,51.89
2023-02-06T13:51:25.152Z,50.94
2023-02-06T13:54:25.413Z,51.22
2023-02-06T13:57:16.540Z,53.11
2023-02-06T13:59:48.314Z,50.80
2023-02-06T14:02:21.951Z,49.48
2023-02-06T14:04:50.835Z,48.12
2023-02-06T14:07:40.664Z,49.05
2023-02-06T14:10:22.133Z,48.38
2023-02-06T14:13:02.132Z,46.96
2023-02-06T14:15:35.267Z,46.36
2023-02-06T14:18:16.879Z,48.05
2023-02-06T14:20:51.067Z,50.69
2023-02-06T14:23:28.840Z,48.57
2023-02-06T14:26:07.307Z,47.15
2023-02-06T14:28:45.676Z,48.35
2023-02-06T14:31:27.884Z,49.08
2023-02-06T14:34:06.366Z,46.71
2023-02-06T14:36:44.112Z,46.09
2023-02-06T14:39:40.792Z,45.39
2023-02-06T14:42:14.643Z,44.70
2023-02-06T14:44:46.046Z,44.54
2023-02-06T14:47:19.294Z,44.39
2023-02-06T14:49:48.538Z,44.00
2023-02-06T14:52:20.438Z,42.46
2023-02-06T14:54:48.859Z,44.48
2023-02-06T14:57:22.180Z,42.70
2023-02-06T14:59:58.424Z,42.40
2023-02-06T15:02:29.640Z,42.46
2023-02-06T15:04:58.286Z,43.01
2023-02-06T15:07:30.734Z,42.87
2023-02-06T15:10:07.488Z,43.88
2023-02-06T15:12:36.898Z,44.67
2023-02-06T15:15:19.188Z,45.21
2023-02-06T15:17:57.891Z,45.91
2023-02-06T15:20:28.869Z,49.27
2023-02-06T15:23:11.665Z,48.70
2023-02-06T15:25:51.852Z,48.30
2023-02-06T15:28:24.339Z,49.91
2023-02-06T15:30:55.902Z,50.34
2023-02-06T15:33:27.719Z,49.93
2023-02-06T15:35:57.747Z,50.40
2023-02-06T15:38:27.137Z,49.82
2023-02-06T15:40:57.956Z,50.00
2023-02-06T15:43:27.314Z,50.65
2023-02-06T15:45:58.486Z,50.11
2023-02-06T15:48:31.962Z,50.67
2023-02-06T15:51:01.650Z,51.68
2023-02-06T15:53:33.250Z,51.47
2023-02-06T15:56:03.010Z,50.93
2023-02-06T15:58:31.939Z,51.36
2023-02-06T16:01:03.362Z,51.39
2023-02-06T16:03:32.225Z,51.86
2023-02-06T16:06:01.024Z,53.24
2023-02-06T16:08:33.112Z,53.68
2023-02-06T16:11:04.103Z,53.07
2023-02-06T16:13:33.349Z,54.90
2023-02-06T16:16:07.025Z,55.49
2023-02-06T16:18:36.722Z,56.93
2023-02-06T16:21:23.635Z,57.22
2023-02-06T16:23:55.983Z,55.60
2023-02-06T16:26:26.394Z,57.88
2023-02-06T16:28:58.370Z,57.97
2023-02-06T16:31:29.685Z,56.28
2023-02-06T16:34:03.192Z,57.70
2023-02-06T16:36:33.666Z,58.18
2023-02-06T16:39:04.384Z,58.44
2023-02-06T16:41:34.556Z,56.73
2023-02-06T16:44:03.919Z,56.93
2023-02-06T16:46:34.077Z,58.40
2023-02-06T16:49:02.557Z,60.41
2023-02-06T16:51:32.060Z,59.57
2023-02-06T16:54:00.515Z,60.72
2023-02-06T16:56:28.853Z,59.14
2023-02-06T16:58:57.296Z,60.50
2023-02-06T17:01:29.504Z,60.41
2023-02-06T17:03:59.490Z,62.22
2023-02-06T17:06:30.454Z,62.51
2023-02-06T17:09:03.284Z,60.94
2023-02-06T17:11:32.146Z,60.25
2023-02-06T17:14:00.801Z,57.05
2023-02-06T17:16:30.176Z,55.55
2023-02-06T17:18:59.942Z,57.10
2023-02-06T17:21:32.724Z,58.46
2023-02-06T17:24:01.151Z,58.42
2023-02-06T17:26:29.548Z,56.71
2023-02-06T17:28:57.931Z,56.93
2023-02-06T17:31:26.508Z,59.85
2023-02-06T17:33:55.002Z,61.54
2023-02-06T17:36:29.570Z,60.41
2023-02-06T17:38:58.939Z,64.25
2023-02-06T17:41:27.647Z,66.21
2023-02-06T17:43:56.051Z,61.95
2023-02-06T17:46:24.740Z,65.92
2023-02-06T17:48:53.161Z,63.69
2023-02-06T17:51:21.551Z,64.94
2023-02-06T17:53:51.962Z,63.79
2023-02-06T17:56:21.108Z,67.01
2023-02-06T17:58:50.073Z,69.33
2023-02-06T18:01:21.108Z,72.51
2023-02-06T18:03:50.297Z,75.29
2023-02-06T18:06:19.597Z,80.92
2023-02-06T18:08:48.294Z,79.45
2023-02-06T18:11:19.783Z,77.74
2023-02-06T18:13:49.375Z,73.79
2023-02-06T18:16:20.034Z,71.66
2023-02-06T18:18:48.782Z,70.80
2023-02-06T18:21:19.236Z,69.31
2023-02-06T18:23:48.038Z,71.24
2023-02-06T18:26:18.538Z,72.40
2023-02-06T18:28:46.967Z,64.28
2023-02-06T18:31:26.675Z,71.06
2023-02-06T18:33:55.450Z,75.65
2023-02-06T18:36:24.232Z,72.89
2023-02-06T18:38:52.659Z,73.28
2023-02-06T18:41:39.699Z,76.67
2023-02-06T18:44:09.398Z,82.59
2023-02-06T18:46:38.851Z,74.15
2023-02-06T18:49:07.591Z,72.08
2023-02-06T18:51:36.121Z,73.88
2023-02-06T18:54:04.623Z,79.62
2023-02-06T18:56:34.453Z,81.07
2023-02-06T18:59:04.009Z,81.21
2023-02-06T19:01:32.807Z,75.84
2023-02-06T19:04:01.427Z,79.11
2023-02-06T19:06:32.218Z,81.45
2023-02-06T19:09:00.702Z,79.48
2023-02-06T19:11:29.133Z,78.93
2023-02-06T19:13:59.239Z,79.63
2023-02-06T19:16:28.374Z,84.19
2023-02-06T19:18:56.887Z,84.66
2023-02-06T19:21:26.972Z,84.46
2023-02-06T19:23:57.069Z,87.15
2023-02-06T19:26:26.327Z,88.63
2023-02-06T19:28:54.867Z,91.27
2023-02-06T19:31:24.939Z,91.61
2023-02-06T19:33:54.886Z,87.87
2023-02-06T19:36:24.568Z,81.01
2023-02-06T19:38:55.650Z,85.98
2023-02-06T19:41:26.485Z,84.18
2023-02-06T19:43:56.177Z,84.81
2023-02-06T19:46:27.601Z,90.57
2023-02-06T19:48:56.422Z,94.40
2023-02-06T19:51:26.830Z,99.24
2023-02-06T19:53:56.334Z,95.18
2023-02-06T19:56:26.971Z,90.46
2023-02-06T19:58:55.925Z,91.90
2023-02-06T20:01:26.266Z,98.29
2023-02-06T20:03:54.794Z,100.00
2023-02-06T20:06:23.612Z,96.47
2023-02-06T20:08:51.975Z,98.14
2023-02-06T20:11:23.391Z,94.88
2023-02-06T20:13:53.996Z,97.50
2023-02-06T20:16:23.051Z,96.61
2023-02-06T20:18:53.280Z,97.66
2023-02-06T20:21:26.732Z,89.50
2023-02-06T20:23:55.900Z,100.00
2023-02-06T20:26:25.386Z,100.00
2023-02-06T20:28:53.684Z,100.00
2023-02-06T20:31:22.330Z,100.00
2023-02-06T20:33:52.437Z,100.00
2023-02-06T20:36:22.290Z,100.00
2023-02-06T20:38:51.457Z,100.00
2023-02-06T20:41:21.006Z,100.00
2023-02-06T20:43:49.366Z,100.00
2023-02-06T20:46:18.137Z,100.00
2023-02-06T20:48:47.949Z,100.00
2023-02-06T20:51:17.665Z,100.00
2023-02-06T20:53:46.000Z,100.00
2023-02-06T20:56:15.483Z,100.00
2023-02-06T20:58:44.299Z,100.00
2023-02-06T21:01:14.323Z,100.00
2023-02-06T21:03:42.899Z,100.00
2023-02-06T21:06:11.370Z,100.00
2023-02-06T21:08:41.344Z,100.00
2023-02-06T21:11:09.899Z,100.00
2023-02-06T21:13:40.586Z,100.00
2023-02-06T21:16:11.950Z,100.00
2023-02-06T21:18:42.779Z,100.00
2023-02-06T21:21:13.215Z,100.00
2023-02-06T21:23:44.229Z,100.00
2023-02-06T21:26:13.763Z,100.00
2023-02-06T21:28:42.568Z,100.00
2023-02-06T21:31:14.328Z,100.00
2023-02-06T21:33:42.897Z,100.00
2023-02-06T21:36:11.420Z,100.00
2023-02-06T21:38:40.433Z,100.00
2023-02-06T21:41:12.851Z,100.00
2023-02-06T21:43:41.370Z,100.00
2023-02-06T21:46:10.709Z,100.00
2023-02-06T21:48:39.295Z,100.00
2023-02-06T21:51:12.508Z,100.00
2023-02-06T21:53:41.408Z,100.00
2023-02-06T21:56:15.862Z,100.00
2023-02-06T21:58:44.464Z,100.00
2023-02-06T22:01:15.832Z,100.00
2023-02-06T22:03:44.817Z,100.00
2023-02-06T22:06:13.814Z,100.00
2023-02-06T22:08:48.023Z,100.00
2023-02-06T22:11:20.802Z,100.00
2023-02-06T22:13:49.511Z,100.00
2023-02-06T22:16:19.215Z,100.00
2023-02-06T22:18:47.956Z,100.00
2023-02-06T22:21:17.856Z,100.00
2023-02-06T22:23:46.928Z,100.00
2023-02-06T22:26:19.559Z,100.00
2023-02-06T22:28:48.064Z,100.00
2023-02-06T22:31:18.504Z,100.00
2023-02-06T22:33:46.769Z,100.00
2023-02-06T22:36:16.377Z,100.00
2023-02-06T22:38:45.684Z,100.00
2023-02-06T22:41:15.906Z,100.00
2023-02-06T22:43:46.613Z,100.00
2023-02-06T22:46:19.834Z,100.00
2023-02-06T22:48:48.415Z,100.00
2023-02-06T22:51:17.003Z,100.00
2023-02-06T22:53:45.866Z,100.00
2023-02-06T22:56:29.562Z,100.00
2023-02-06T22:59:00.998Z,100.00
2023-02-06T23:01:31.916Z,100.00
2023-02-06T23:04:01.322Z,100.00
2023-02-06T23:06:30.708Z,100.00
2023-02-06T23:08:59.600Z,100.00
2023-02-06T23:11:29.095Z,100.00
2023-02-06T23:14:01.252Z,100.00
2023-02-06T23:16:30.362Z,100.00
2023-02-06T23:18:59.017Z,100.00
2023-02-06T23:21:28.037Z,100.00
2023-02-06T23:23:56.826Z,100.00
2023-02-06T23:26:25.597Z,100.00
2023-02-06T23:28:54.530Z,100.00
2023-02-06T23:31:24.558Z,100.00
2023-02-06T23:33:53.091Z,100.00
2023-02-06T23:36:23.699Z,100.00
2023-02-06T23:38:52.638Z,100.00
2023-02-06T23:41:22.844Z,100.00
2023-02-06T23:43:52.574Z,100.00
2023-02-06T23:46:21.501Z,100.00
2023-02-06T23:48:51.722Z,100.00
2023-02-06T23:51:20.630Z,100.00
2023-02-06T23:53:49.573Z,100.00
2023-02-06T23:56:19.589Z,100.00
2023-02-06T23:58:49.406Z,100.00
